Southern Utah University
, Cedar City
Last Weather Update:10/30/2011 11:00:00 PM
Date
ETo
ETc
Rain
Irrigation
Req
Temp
Max
Temp
Min
Temp
Avg
Avg RH
Avg Wind
Avg Solar
inches
inches
incehs
inches
F
F
F
%
%
watts/m2
9/1/2011 0.29" 0.20" 0.00" 0.20" 85.8° 63.4° 75.8° 19.1% 7.8 MPH 274.7w/m2
9/2/2011 0.21" 0.14" 0.00" 0.14" 86.6° 54.6° 70.9° 22.2% 3.0 MPH 284.8w/m2
9/3/2011 0.19" 0.13" 0.00" 0.13" 86.2° 55.0° 70.7° 18.9% 2.3 MPH 262.8w/m2
9/4/2011 0.21" 0.14" 0.00" 0.14" 88.7° 56.0° 72.3° 21.3% 2.6 MPH 273.1w/m2
9/5/2011 0.11" 0.08" 0.00" 0.08" 79.4° 60.1° 67.9° 40.6% 3.7 MPH 81.6w/m2
9/6/2011 0.20" 0.14" 0.00" 0.14" 82.5° 54.6° 68.0° 45.4% 2.8 MPH 271.7w/m2
9/7/2011 0.21" 0.14" 0.00" 0.14" 82.6° 53.2° 68.3° 34.4% 3.6 MPH 277.4w/m2
9/8/2011 0.20" 0.14" 0.00" 0.14" 83.7° 53.2° 69.2° 27.1% 3.1 MPH 265.4w/m2
9/9/2011 0.14" 0.09" 0.00" 0.09" 75.9° 54.8° 64.8° 33.8% 2.5 MPH 182.1w/m2
9/10/2011 0.12" 0.08" 0.01" 0.07" 73.8° 54.8° 64.0° 46.1% 2.7 MPH 162.3w/m2
9/11/2011 0.14" 0.09" 0.25" -0.11" 71.8° 52.4° 62.0° 52.9% 6.4 MPH 136.3w/m2
9/12/2011 0.17" 0.12" 0.03" 0.09" 75.2° 48.7° 62.2° 56.6% 3.4 MPH 259.2w/m2
9/13/2011 0.11" 0.07" 0.07" 0.02" 73.1° 51.1° 60.2° 60.5% 2.3 MPH 165.7w/m2
9/14/2011 0.09" 0.06" 0.08" -0.01" 64.0° 50.7° 56.6° 75.6% 1.9 MPH 133.1w/m2
9/15/2011 0.15" 0.10" 0.00" 0.10" 71.9° 46.8° 58.6° 61.4% 2.5 MPH 239.2w/m2
9/16/2011 0.16" 0.10" 0.18" -0.04" 74.0° 50.4° 60.6° 60.6% 4.7 MPH 222.7w/m2
9/17/2011 0.15" 0.10" 0.00" 0.10" 74.2° 49.8° 61.0° 61.5% 2.7 MPH 228.1w/m2
9/18/2011 0.16" 0.10" 0.00" 0.10" 78.8° 51.0° 64.6° 42.9% 2.5 MPH 233.8w/m2
9/19/2011 0.17" 0.11" 0.00" 0.11" 81.4° 51.8° 66.8° 37.7% 2.6 MPH 249.8w/m2
9/20/2011 0.17" 0.11" 0.00" 0.11" 83.3° 54.9° 68.9° 31.4% 2.6 MPH 225.8w/m2
9/21/2011 0.17" 0.11" 0.00" 0.11" 83.0° 50.9° 66.8° 31.7% 2.6 MPH 246.9w/m2
9/22/2011 0.18" 0.11" 0.00" 0.11" 83.0° 50.8° 66.5° 27.6% 3.0 MPH 244.9w/m2
9/23/2011 0.19" 0.12" 0.00" 0.12" 83.4° 47.6° 66.8° 22.2% 3.4 MPH 247.4w/m2
9/24/2011 0.18" 0.11" 0.00" 0.11" 84.2° 50.8° 67.6° 22.4% 3.0 MPH 246.7w/m2
9/25/2011 0.17" 0.11" 0.00" 0.11" 81.3° 51.7° 67.9° 29.0% 3.0 MPH 236.2w/m2
9/26/2011 0.15" 0.09" 0.00" 0.09" 81.1° 54.9° 68.1° 30.2% 2.4 MPH 203.7w/m2
9/27/2011 0.16" 0.10" 0.00" 0.10" 82.2° 52.0° 67.1° 31.6% 2.5 MPH 237.1w/m2
9/28/2011 0.18" 0.11" 0.00" 0.11" 84.7° 52.4° 69.2° 25.9% 3.4 MPH 237.7w/m2
9/29/2011 0.16" 0.10" 0.00" 0.10" 85.4° 52.8° 69.4° 27.7% 2.2 MPH 233.8w/m2
9/30/2011 0.20" 0.12" 0.00" 0.12" 82.9° 54.5° 70.7° 26.6% 4.4 MPH 234.7w/m2
Totals: 5.09" 3.30" 0.62" 2.81" 88.7° 46.8° 66.4° 37.5% 3.2 MPH 226.6w/m2